createdAt,value
2019-05-18T00:02:06.649Z,28.00
2019-05-18T00:04:35.481Z,24.10
2019-05-18T00:07:05.950Z,27.63
2019-05-18T00:09:37.600Z,27.47
2019-05-18T00:12:09.238Z,31.73
2019-05-18T00:14:37.917Z,32.00
2019-05-18T00:17:09.489Z,29.00
2019-05-18T00:19:37.084Z,28.63
2019-05-18T00:22:05.913Z,28.67
2019-05-18T00:24:37.201Z,34.10
2019-05-18T00:27:26.508Z,31.30
2019-05-18T00:29:55.235Z,30.07
2019-05-18T00:32:24.238Z,27.93
2019-05-18T00:34:53.006Z,31.60
2019-05-18T00:37:21.674Z,32.00
2019-05-18T00:39:50.464Z,35.57
2019-05-18T00:42:19.173Z,28.83
2019-05-18T00:44:47.885Z,33.20
2019-05-18T00:47:16.597Z,31.90
2019-05-18T00:49:45.420Z,29.23
2019-05-18T00:52:14.154Z,31.77
2019-05-18T00:54:42.861Z,31.87
2019-05-18T00:57:11.593Z,33.60
2019-05-18T00:59:40.633Z,34.00
2019-05-18T01:02:09.301Z,32.43
2019-05-18T01:04:37.997Z,33.80
2019-05-18T01:07:06.718Z,39.87
2019-05-18T01:09:38.733Z,34.27
2019-05-18T01:12:07.459Z,30.57
2019-05-18T01:14:38.845Z,31.20
2019-05-18T01:17:07.557Z,41.03
2019-05-18T01:19:39.241Z,31.53
2019-05-18T01:22:07.960Z,35.03
2019-05-18T01:24:36.666Z,31.80
2019-05-18T01:27:05.798Z,33.37
2019-05-18T01:29:37.171Z,36.33
2019-05-18T01:32:06.006Z,31.30
2019-05-18T01:34:38.226Z,35.03
2019-05-18T01:37:06.953Z,36.83
2019-05-18T01:39:35.710Z,35.60
2019-05-18T01:42:04.584Z,35.73
2019-05-18T01:44:33.904Z,38.60
2019-05-18T01:47:02.614Z,39.30
2019-05-18T01:49:31.338Z,37.73
2019-05-18T01:52:00.252Z,38.50
2019-05-18T01:54:28.966Z,39.17
2019-05-18T01:56:58.086Z,40.73
2019-05-18T01:59:26.797Z,42.00
2019-05-18T02:01:55.512Z,35.13
2019-05-18T02:04:24.225Z,40.43
2019-05-18T02:06:52.936Z,40.60
2019-05-18T02:09:21.590Z,39.53
2019-05-18T02:11:50.682Z,46.43
2019-05-18T02:14:19.407Z,37.43
2019-05-18T02:16:48.130Z,37.73
2019-05-18T02:19:17.143Z,38.57
2019-05-18T02:21:45.860Z,38.83
2019-05-18T02:24:14.549Z,40.37
2019-05-18T02:26:43.416Z,39.23
2019-05-18T02:29:12.311Z,39.20
2019-05-18T02:31:41.028Z,42.20
2019-05-18T02:34:09.736Z,46.67
2019-05-18T02:36:38.463Z,38.53
2019-05-18T02:39:08.816Z,43.60
2019-05-18T02:41:37.740Z,40.80
2019-05-18T02:44:06.702Z,48.43
2019-05-18T02:46:38.458Z,44.20
2019-05-18T02:49:07.167Z,47.43
2019-05-18T02:51:35.888Z,39.70
2019-05-18T02:54:07.776Z,41.80
2019-05-18T02:56:36.854Z,43.77
2019-05-18T02:59:08.419Z,43.03
2019-05-18T03:01:37.196Z,46.03
2019-05-18T03:04:05.876Z,49.53
2019-05-18T03:06:35.065Z,47.90
2019-05-18T03:09:05.525Z,45.77
2019-05-18T03:11:37.520Z,46.10
2019-05-18T03:14:09.203Z,42.80
2019-05-18T03:16:38.023Z,47.23
2019-05-18T03:19:08.869Z,47.50
2019-05-18T03:21:37.188Z,43.43
2019-05-18T03:24:05.920Z,53.73
2019-05-18T03:26:37.623Z,43.97
2019-05-18T03:29:06.443Z,45.97
2019-05-18T03:31:36.554Z,48.63
2019-05-18T03:34:06.784Z,50.90
2019-05-18T03:36:38.461Z,45.57
2019-05-18T03:39:07.165Z,54.23
2019-05-18T03:41:37.423Z,45.97
2019-05-18T03:44:09.527Z,50.70
2019-05-18T03:46:38.648Z,45.63
2019-05-18T03:49:23.651Z,48.80
2019-05-18T03:51:38.151Z,47.33
2019-05-18T03:54:06.869Z,48.83
2019-05-18T03:56:35.584Z,46.93
2019-05-18T03:59:04.317Z,44.83
2019-05-18T04:01:34.869Z,47.50
2019-05-18T04:04:06.049Z,56.07
2019-05-18T04:06:34.769Z,51.40
2019-05-18T04:11:38.915Z,57.03
2019-05-18T04:14:08.576Z,53.93
2019-05-18T04:16:37.700Z,53.00
2019-05-18T04:19:06.820Z,57.57
2019-05-18T04:21:38.636Z,57.60
2019-05-18T04:24:07.317Z,50.47
2019-05-18T04:26:37.785Z,58.67
2019-05-18T04:29:06.596Z,65.00
2019-05-18T04:31:36.756Z,53.60
2019-05-18T04:34:08.357Z,63.10
2019-05-18T04:36:37.029Z,59.90
2019-05-18T04:39:06.929Z,60.23
2019-05-18T04:41:35.752Z,61.83
2019-05-18T04:44:04.477Z,64.87
2019-05-18T04:46:33.181Z,65.20
2019-05-18T04:49:01.922Z,59.27
2019-05-18T04:51:30.563Z,56.90
2019-05-18T04:53:59.338Z,67.10
2019-05-18T04:56:28.051Z,64.83
2019-05-18T04:58:56.765Z,65.70
2019-05-18T05:01:25.478Z,67.93
2019-05-18T05:03:54.206Z,70.67
2019-05-18T05:06:22.990Z,75.60
2019-05-18T05:08:52.045Z,66.23
2019-05-18T05:11:20.754Z,71.17
2019-05-18T05:13:49.464Z,76.43
2019-05-18T05:16:18.494Z,71.17
2019-05-18T05:18:47.203Z,71.17
2019-05-18T05:21:15.929Z,86.40
2019-05-18T05:23:44.610Z,85.13
2019-05-18T05:26:13.351Z,72.70
2019-05-18T05:28:42.018Z,71.20
2019-05-18T05:31:10.784Z,64.93
2019-05-18T05:33:39.440Z,66.20
2019-05-18T05:36:08.212Z,64.63
2019-05-18T05:38:37.331Z,58.63
2019-05-18T05:41:07.624Z,58.17
2019-05-18T05:43:39.168Z,49.07
2019-05-18T05:46:07.828Z,50.07
2019-05-18T05:48:36.598Z,48.27
2019-05-18T05:51:06.693Z,54.07
2019-05-18T05:53:35.990Z,48.17
2019-05-18T05:56:07.788Z,46.83
2019-05-18T05:58:36.927Z,41.37
2019-05-18T06:01:06.033Z,41.83
2019-05-18T06:03:37.724Z,38.10
2019-05-18T06:06:06.433Z,39.63
2019-05-18T06:08:36.567Z,37.90
2019-05-18T06:11:06.749Z,34.73
2019-05-18T06:13:38.135Z,32.00
2019-05-18T06:16:07.267Z,29.90
2019-05-18T06:18:38.037Z,29.97
2019-05-18T06:21:06.772Z,31.10
2019-05-18T06:23:38.570Z,29.50
2019-05-18T06:26:07.290Z,24.00
2019-05-18T06:28:37.551Z,25.90
2019-05-18T06:31:09.035Z,24.10
2019-05-18T06:33:37.751Z,21.63
2019-05-18T06:36:06.460Z,16.40
2019-05-18T06:38:36.743Z,18.90
2019-05-18T06:41:08.967Z,16.13
2019-05-18T06:43:37.628Z,19.43
2019-05-18T06:46:09.297Z,14.70
2019-05-18T06:48:37.910Z,18.07
2019-05-18T06:51:07.775Z,16.60
2019-05-18T06:53:36.611Z,16.30
2019-05-18T06:56:08.615Z,21.73
2019-05-18T06:58:37.943Z,17.53
2019-05-18T07:01:06.667Z,13.53
2019-05-18T07:03:36.757Z,13.10
2019-05-18T07:06:08.523Z,13.80
2019-05-18T07:08:37.192Z,13.77
2019-05-18T07:11:05.852Z,14.90
2019-05-18T07:13:34.637Z,15.27
2019-05-18T07:16:03.619Z,14.30
2019-05-18T07:18:32.742Z,12.07
2019-05-18T07:21:01.375Z,16.97
2019-05-18T07:23:29.967Z,13.37
2019-05-18T07:25:58.612Z,9.93
2019-05-18T07:28:27.263Z,12.27
2019-05-18T07:30:55.922Z,15.80
2019-05-18T07:33:24.583Z,14.77
2019-05-18T07:35:53.255Z,15.33
2019-05-18T07:38:21.901Z,15.43
2019-05-18T07:40:50.590Z,14.57
2019-05-18T07:43:19.313Z,14.90
2019-05-18T07:45:48.123Z,12.70
2019-05-18T07:48:16.775Z,18.77
2019-05-18T07:50:45.540Z,11.50
2019-05-18T07:53:14.174Z,10.10
2019-05-18T07:55:42.850Z,13.47
2019-05-18T07:58:11.502Z,10.23
2019-05-18T08:00:40.235Z,14.50
2019-05-18T08:03:08.942Z,14.50
2019-05-18T08:05:37.620Z,11.90
2019-05-18T08:08:06.682Z,8.77
2019-05-18T08:10:37.184Z,13.13
2019-05-18T08:13:07.831Z,12.60
2019-05-18T08:15:37.408Z,44.60
2019-05-18T08:18:06.771Z,13.13
2019-05-18T08:20:38.229Z,13.63
2019-05-18T08:23:07.050Z,12.27
2019-05-18T08:25:35.765Z,12.70
2019-05-18T08:28:04.684Z,10.10
2019-05-18T08:30:33.906Z,13.90
2019-05-18T08:33:02.562Z,9.83
2019-05-18T08:35:31.277Z,11.77
2019-05-18T08:38:00.280Z,12.40
2019-05-18T08:40:29.011Z,13.50
2019-05-18T08:42:57.734Z,14.90
2019-05-18T08:45:26.445Z,12.37
2019-05-18T08:47:55.165Z,13.67
2019-05-18T08:50:23.913Z,10.53
2019-05-18T08:52:52.658Z,13.80
2019-05-18T08:55:21.799Z,11.27
2019-05-18T08:57:50.523Z,12.80
2019-05-18T09:00:19.636Z,11.60
2019-05-18T09:02:48.373Z,9.97
2019-05-18T09:05:17.520Z,13.87
2019-05-18T09:07:46.276Z,12.00
2019-05-18T09:10:14.943Z,10.20
2019-05-18T09:12:43.677Z,8.77
2019-05-18T09:15:12.610Z,11.00
2019-05-18T09:17:41.345Z,11.03
2019-05-18T09:20:10.789Z,8.27
2019-05-18T09:22:39.447Z,7.90
2019-05-18T09:25:08.692Z,7.47
2019-05-18T09:27:37.420Z,6.00
2019-05-18T09:30:08.567Z,8.83
2019-05-18T09:32:37.837Z,7.53
2019-05-18T09:35:08.187Z,7.00
2019-05-18T09:37:36.940Z,5.93
2019-05-18T09:40:09.183Z,6.20
2019-05-18T09:42:37.885Z,8.53
2019-05-18T09:45:07.674Z,10.70
2019-05-18T09:47:36.474Z,7.50
2019-05-18T09:50:06.312Z,6.93
2019-05-18T09:52:45.071Z,6.73
2019-05-18T09:55:09.048Z,8.43
2019-05-18T09:57:37.798Z,8.73
2019-05-18T10:00:08.270Z,6.57
2019-05-18T10:02:36.943Z,5.43
2019-05-18T10:05:06.329Z,8.43
2019-05-18T10:07:36.569Z,6.30
2019-05-18T10:10:07.051Z,7.83
2019-05-18T10:12:35.846Z,7.53
2019-05-18T10:15:08.464Z,8.20
2019-05-18T10:17:37.239Z,9.90
2019-05-18T10:20:10.420Z,7.70
2019-05-18T10:22:53.494Z,7.83
2019-05-18T10:25:10.292Z,14.07
2019-05-18T10:27:39.013Z,8.90
2019-05-18T10:30:09.570Z,7.43
2019-05-18T10:32:38.386Z,8.73
2019-05-18T10:35:08.029Z,8.80
2019-05-18T10:37:36.839Z,6.63
2019-05-18T10:40:08.392Z,9.23
2019-05-18T10:42:37.235Z,10.53
2019-05-18T10:45:10.230Z,6.33
2019-05-18T10:47:39.003Z,11.30
2019-05-18T10:50:08.117Z,6.63
2019-05-18T10:52:36.841Z,6.50
2019-05-18T10:55:09.075Z,6.67
2019-05-18T10:57:37.789Z,7.03
2019-05-18T11:00:09.495Z,5.63
2019-05-18T11:02:38.134Z,6.20
2019-05-18T11:05:07.987Z,6.30
2019-05-18T11:07:36.626Z,7.80
2019-05-18T11:10:07.602Z,6.17
2019-05-18T11:12:39.459Z,6.87
2019-05-18T11:15:09.516Z,7.77
2019-05-18T11:17:38.241Z,7.13
2019-05-18T11:20:09.212Z,8.40
2019-05-18T11:22:37.959Z,6.60
2019-05-18T11:25:07.913Z,7.28
2019-05-18T11:27:36.744Z,6.40
2019-05-18T11:30:10.083Z,4.37
2019-05-18T11:32:39.327Z,6.00
2019-05-18T11:35:09.263Z,5.47
2019-05-18T11:37:37.996Z,4.30
2019-05-18T11:40:08.566Z,6.37
2019-05-18T11:42:37.318Z,4.70
2019-05-18T11:45:09.116Z,7.93
2019-05-18T11:47:37.812Z,5.80
2019-05-18T11:50:11.072Z,5.17
2019-05-18T11:52:39.888Z,7.33
2019-05-18T11:55:09.048Z,4.40
2019-05-18T11:57:38.082Z,6.73
2019-05-18T12:00:09.873Z,3.33
2019-05-18T12:02:38.610Z,4.70
2019-05-18T12:05:08.290Z,4.17
2019-05-18T12:07:36.943Z,4.37
2019-05-18T12:10:07.384Z,3.20
2019-05-18T12:12:37.662Z,6.90
2019-05-18T12:15:08.796Z,2.40
2019-05-18T12:17:37.552Z,2.50
2019-05-18T12:20:09.842Z,3.47
2019-05-18T12:22:38.594Z,3.00
2019-05-18T12:25:08.663Z,2.40
2019-05-18T12:27:37.632Z,4.40
2019-05-18T12:30:09.372Z,2.40
2019-05-18T12:32:38.527Z,3.10
2019-05-18T12:35:10.043Z,2.53
2019-05-18T12:37:38.757Z,3.77
2019-05-18T12:40:08.806Z,4.00
2019-05-18T12:42:37.959Z,2.60
2019-05-18T12:45:08.110Z,2.63
2019-05-18T12:47:36.840Z,5.17
2019-05-18T12:50:09.606Z,4.37
2019-05-18T12:52:38.272Z,5.10
2019-05-18T12:55:07.876Z,3.47
2019-05-18T12:57:36.947Z,4.90
2019-05-18T13:00:11.028Z,3.43
2019-05-18T13:02:39.769Z,3.63
2019-05-18T13:05:08.807Z,4.40
2019-05-18T13:07:37.585Z,4.00
2019-05-18T13:10:10.963Z,3.87
2019-05-18T13:12:39.693Z,3.30
2019-05-18T13:15:10.985Z,3.03
2019-05-18T13:17:39.884Z,4.00
2019-05-18T13:20:10.566Z,3.00
2019-05-18T13:22:39.291Z,2.73
2019-05-18T13:25:08.936Z,5.10
2019-05-18T13:27:39.824Z,3.33
2019-05-18T13:30:12.990Z,4.20
2019-05-18T13:32:41.632Z,4.53
2019-05-18T13:35:10.814Z,3.30
2019-05-18T13:37:39.558Z,5.97
2019-05-18T13:40:10.090Z,4.03
2019-05-18T13:42:38.788Z,5.23
2019-05-18T13:45:09.791Z,3.07
2019-05-18T13:47:38.697Z,2.90
2019-05-18T13:50:07.815Z,5.50
2019-05-18T13:52:36.550Z,6.50
2019-05-18T13:55:06.396Z,3.60
2019-05-18T13:57:35.337Z,3.97
2019-05-18T14:00:06.350Z,4.17
2019-05-18T14:02:35.256Z,2.90
2019-05-18T14:05:06.248Z,2.90
2019-05-18T14:07:34.999Z,3.10
2019-05-18T14:10:05.289Z,6.43
2019-05-18T14:12:34.219Z,5.80
2019-05-18T14:15:04.734Z,3.87
2019-05-18T14:17:36.579Z,4.20
2019-05-18T14:20:06.621Z,3.30
2019-05-18T14:22:35.862Z,2.63
2019-05-18T14:25:18.731Z,3.13
2019-05-18T14:27:38.213Z,2.90
2019-05-18T14:30:08.270Z,2.83
2019-05-18T14:32:36.979Z,6.20
2019-05-18T14:35:07.758Z,3.10
2019-05-18T14:37:36.451Z,2.40
2019-05-18T14:40:09.674Z,3.23
2019-05-18T14:42:38.401Z,2.87
2019-05-18T14:45:08.444Z,4.77
2019-05-18T14:47:37.248Z,3.70
2019-05-18T14:50:07.912Z,6.63
2019-05-18T14:52:36.833Z,2.70
2019-05-18T14:55:08.740Z,3.17
2019-05-18T14:57:37.734Z,3.37
2019-05-18T15:00:07.780Z,2.50
2019-05-18T15:02:36.904Z,4.03
2019-05-18T15:05:08.300Z,3.07
2019-05-18T15:07:36.996Z,2.70
2019-05-18T15:10:09.284Z,2.60
2019-05-18T15:12:38.018Z,2.60
2019-05-18T15:15:08.248Z,2.90
2019-05-18T15:17:37.014Z,3.57
2019-05-18T15:20:07.622Z,3.23
2019-05-18T15:22:39.353Z,2.13
2019-05-18T15:25:08.384Z,2.60
2019-05-18T15:27:37.090Z,2.73
2019-05-18T15:30:08.422Z,7.27
2019-05-18T15:32:37.071Z,3.23
2019-05-18T15:35:09.427Z,4.53
2019-05-18T15:37:39.100Z,2.20
2019-05-18T15:40:09.447Z,3.80
2019-05-18T15:42:38.140Z,7.63
2019-05-18T15:45:07.395Z,4.97
2019-05-18T15:47:38.951Z,2.80
2019-05-18T15:50:08.996Z,3.13
2019-05-18T15:52:37.825Z,2.63
2019-05-18T15:55:08.324Z,2.43
2019-05-18T15:57:37.356Z,2.53
2019-05-18T16:00:10.343Z,2.90
2019-05-18T16:02:39.015Z,2.50
2019-05-18T16:05:08.558Z,4.20
2019-05-18T16:07:37.359Z,2.90
2019-05-18T16:10:07.682Z,3.10
2019-05-18T16:12:36.444Z,3.10
2019-05-18T16:15:08.032Z,3.80
2019-05-18T16:17:39.236Z,4.83
2019-05-18T16:20:07.462Z,2.87
2019-05-18T16:22:39.307Z,4.83
2019-05-18T16:25:08.751Z,4.53
2019-05-18T16:27:37.600Z,7.00
2019-05-18T16:30:08.353Z,4.50
2019-05-18T16:32:37.161Z,4.63
2019-05-18T16:35:07.786Z,6.97
2019-05-18T16:37:36.537Z,4.90
2019-05-18T16:40:06.983Z,3.40
2019-05-18T16:42:35.814Z,4.97
2019-05-18T16:45:08.839Z,5.30
2019-05-18T16:47:37.553Z,4.70
2019-05-18T16:50:10.741Z,3.97
2019-05-18T16:52:39.524Z,4.87
2019-05-18T16:55:09.226Z,3.63
2019-05-18T16:57:37.920Z,6.33
2019-05-18T17:00:10.105Z,7.50
2019-05-18T17:02:38.793Z,10.33
2019-05-18T17:05:08.842Z,27.50
2019-05-18T17:07:37.564Z,25.37
2019-05-18T17:10:10.835Z,20.33
2019-05-18T17:12:39.575Z,63.47
2019-05-18T17:15:09.342Z,242.03
2019-05-18T17:17:38.243Z,113.93
2019-05-18T17:20:07.500Z,99.43
2019-05-18T17:22:39.210Z,457.53
2019-05-18T17:25:08.437Z,289.70
2019-05-18T17:27:37.144Z,548.47
2019-05-18T17:30:07.726Z,324.67
2019-05-18T17:32:36.516Z,706.40
2019-05-18T17:35:09.017Z,382.63
2019-05-18T17:37:37.695Z,578.60
2019-05-18T17:40:08.175Z,69.43
2019-05-18T17:42:36.993Z,154.83
2019-05-18T17:45:08.067Z,292.23
2019-05-18T17:47:37.116Z,588.13
2019-05-18T17:50:10.844Z,499.43
2019-05-18T17:52:39.595Z,142.83
2019-05-18T17:55:08.894Z,251.47
2019-05-18T17:57:38.322Z,239.23
2019-05-18T18:00:08.100Z,224.30
2019-05-18T18:02:36.773Z,171.10
2019-05-18T18:05:07.072Z,122.17
2019-05-18T18:07:35.738Z,129.13
2019-05-18T18:10:05.674Z,130.50
2019-05-18T18:12:34.361Z,123.57
2019-05-18T18:15:03.615Z,116.13
2019-05-18T18:17:32.315Z,87.57
2019-05-18T18:20:01.133Z,69.90
2019-05-18T18:22:29.866Z,54.43
2019-05-18T18:24:58.588Z,73.13
2019-05-18T18:27:29.710Z,66.73
2019-05-18T18:29:58.185Z,40.40
2019-05-18T18:32:27.030Z,34.03
2019-05-18T18:34:55.739Z,34.90
2019-05-18T18:37:24.464Z,38.40
2019-05-18T18:39:53.281Z,28.60
2019-05-18T18:42:21.897Z,26.33
2019-05-18T18:44:50.600Z,14.45
2019-05-18T18:47:19.251Z,13.00
2019-05-18T18:49:47.983Z,9.07
2019-05-18T18:52:16.708Z,7.70
2019-05-18T18:54:45.429Z,9.20
2019-05-18T18:57:14.150Z,7.90
2019-05-18T18:59:42.968Z,9.40
2019-05-18T19:02:12.003Z,7.23
2019-05-18T19:04:40.742Z,10.20
2019-05-18T19:07:09.565Z,6.50
2019-05-18T19:09:38.181Z,6.57
2019-05-18T19:12:06.897Z,5.97
2019-05-18T19:14:38.386Z,6.87
2019-05-18T19:17:07.098Z,7.37
2019-05-18T19:19:35.920Z,7.73
2019-05-18T19:22:05.773Z,7.10
2019-05-18T19:24:34.487Z,9.57
2019-05-18T19:27:03.192Z,8.33
2019-05-18T19:29:31.927Z,9.63
2019-05-18T19:32:00.634Z,9.50
2019-05-18T19:34:29.361Z,13.23
2019-05-18T19:36:58.069Z,13.97
2019-05-18T19:39:26.783Z,8.20
2019-05-18T19:41:55.404Z,9.90
2019-05-18T19:44:24.145Z,14.47
2019-05-18T19:46:52.899Z,9.73
2019-05-18T19:49:21.695Z,8.73
2019-05-18T19:51:50.382Z,9.77
2019-05-18T19:54:19.097Z,11.07
2019-05-18T19:56:47.827Z,11.23
2019-05-18T19:59:16.531Z,13.73
2019-05-18T20:01:45.242Z,14.17
2019-05-18T20:04:14.080Z,14.70
2019-05-18T20:06:42.928Z,13.00
2019-05-18T20:09:11.694Z,19.13
2019-05-18T20:11:40.731Z,13.60
2019-05-18T20:14:09.435Z,23.57
2019-05-18T20:16:38.240Z,25.03
2019-05-18T20:19:07.666Z,27.93
2019-05-18T20:21:36.385Z,31.03
2019-05-18T20:24:06.532Z,25.00
2019-05-18T20:26:36.785Z,26.80
2019-05-18T20:29:08.470Z,16.40
2019-05-18T20:31:37.316Z,15.70
2019-05-18T20:34:07.447Z,17.03
2019-05-18T20:36:39.274Z,16.13
2019-05-18T20:39:08.031Z,16.43
2019-05-18T20:41:36.800Z,19.23
2019-05-18T20:44:06.256Z,21.53
2019-05-18T20:46:35.042Z,18.83
2019-05-18T20:49:06.932Z,17.83
2019-05-18T20:51:35.642Z,26.50
2019-05-18T20:54:04.587Z,21.60
2019-05-18T20:56:33.301Z,17.83
2019-05-18T20:59:02.396Z,20.13
2019-05-18T21:01:31.116Z,19.10
2019-05-18T21:03:59.842Z,19.00
2019-05-18T21:06:28.669Z,18.43
2019-05-18T21:08:57.378Z,14.60
2019-05-18T21:11:26.113Z,12.90
2019-05-18T21:13:57.659Z,13.10
2019-05-18T21:16:25.288Z,13.10
2019-05-18T21:18:54.190Z,15.60
2019-05-18T21:21:25.562Z,15.17
2019-05-18T21:23:53.561Z,12.63
2019-05-18T21:26:22.688Z,16.83
2019-05-18T21:28:56.505Z,16.37
2019-05-18T21:31:21.977Z,16.10
2019-05-18T21:33:50.688Z,19.00
2019-05-18T21:36:19.637Z,15.57
2019-05-18T21:38:48.428Z,19.30
2019-05-18T21:41:17.044Z,18.03
2019-05-18T21:43:45.759Z,18.60
2019-05-18T21:46:14.470Z,25.83
2019-05-18T21:48:43.193Z,17.80
2019-05-18T21:51:11.816Z,19.27
2019-05-18T21:53:40.531Z,23.93
2019-05-18T21:56:09.263Z,20.40
2019-05-18T21:58:37.989Z,24.23
2019-05-18T22:01:07.212Z,28.10
2019-05-18T22:03:37.372Z,28.23
2019-05-18T22:06:07.838Z,35.93
2019-05-18T22:08:36.652Z,33.10
2019-05-18T22:11:07.125Z,33.23
2019-05-18T22:13:35.820Z,32.73
2019-05-18T22:16:07.202Z,26.93
2019-05-18T22:18:35.936Z,26.03
2019-05-18T22:21:07.599Z,31.77
2019-05-18T22:23:39.205Z,30.63
2019-05-18T22:26:08.038Z,31.90
2019-05-18T22:28:36.744Z,26.40
2019-05-18T22:31:08.450Z,24.00
2019-05-18T22:33:37.192Z,24.50
2019-05-18T22:36:07.134Z,22.87
2019-05-18T22:38:35.803Z,20.00
2019-05-18T22:41:04.607Z,19.70
2019-05-18T22:43:33.861Z,14.83
2019-05-18T22:46:02.600Z,16.13
2019-05-18T22:48:41.028Z,15.07
2019-05-18T22:51:01.691Z,18.97
2019-05-18T22:53:30.430Z,19.60
2019-05-18T22:55:59.015Z,19.70
2019-05-18T22:58:27.787Z,16.20
2019-05-18T23:00:56.511Z,19.50
2019-05-18T23:03:25.339Z,17.43
2019-05-18T23:05:53.995Z,18.67
2019-05-18T23:08:22.796Z,20.17
2019-05-18T23:10:51.488Z,19.43
2019-05-18T23:13:20.124Z,19.73
2019-05-18T23:15:48.726Z,19.33
2019-05-18T23:18:18.368Z,21.57
2019-05-18T23:20:47.025Z,18.30
2019-05-18T23:23:15.698Z,17.50
2019-05-18T23:25:44.309Z,24.73
2019-05-18T23:28:13.113Z,19.60
2019-05-18T23:30:41.834Z,20.30
2019-05-18T23:33:10.543Z,23.30
2019-05-18T23:35:39.205Z,23.30
2019-05-18T23:38:07.978Z,26.00
2019-05-18T23:40:36.680Z,25.80
2019-05-18T23:43:05.704Z,29.90
2019-05-18T23:45:34.520Z,28.40
2019-05-18T23:48:03.216Z,29.53
2019-05-18T23:50:31.851Z,24.87
2019-05-18T23:53:00.586Z,25.53
2019-05-18T23:55:29.304Z,24.80
2019-05-18T23:58:05.294Z,26.70
